This is the latest recevied weather packets stored in our database for station/object DG4DAA-13. If no packets are shown the sender has not sent any weather packets the latest 10 day(s).
| Time | Temp. | Humidity | Pressure | Rain* | Wind** | Luminosity | Snow |
|---|---|---|---|---|---|---|---|
| 1777846104 | 13.33° C | 80% | 1014.1 hPa | 0 mm | - | - | - |
| 1777844305 | 13.89° C | 80% | 1014.3 hPa | 0 mm | - | - | - |
| 1777842505 | 15° C | 79% | 1014.3 hPa | 0 mm | - | - | - |
| 1777840705 | 15° C | 79% | 1014.3 hPa | 0 mm | - | - | - |
| 1777838905 | 15.56° C | 78% | 1014.2 hPa | 0 mm | - | - | - |
| 1777837105 | 16.11° C | 75% | 1014.1 hPa | 0 mm | - | - | - |
| 1777835305 | 16.67° C | 74% | 1014.1 hPa | 0 mm | - | - | - |
| 1777833505 | 16.67° C | 73% | 1013.7 hPa | 0 mm | - | - | - |
| 1777831705 | 17.78° C | 71% | 1013.7 hPa | 0 mm | - | - | - |
| 1777829905 | 17.78° C | 70% | 1013.5 hPa | 0 mm | - | - | - |
| 1777828105 | 18.89° C | 68% | 1013.3 hPa | 0 mm | - | - | - |
| 1777826305 | 19.44° C | 64% | 1013.2 hPa | 0 mm | - | - | - |
| 1777824507 | 20° C | 63% | 1013 hPa | 0 mm | - | - | - |
| 1777822705 | 19.44° C | 63% | 1012.8 hPa | 0 mm | - | - | - |
| 1777820905 | 20° C | 62% | 1012.8 hPa | 0 mm | - | - | - |
| 1777819105 | 21.11° C | 56% | 1012.7 hPa | 0 mm | - | - | - |
| 1777817305 | 21.67° C | 56% | 1012.8 hPa | 0 mm | - | - | - |
| 1777815506 | 21.67° C | 54% | 1012.8 hPa | 0 mm | - | - | - |
| 1777813706 | 22.22° C | 53% | 1012.9 hPa | 0 mm | - | - | - |
| 1777811905 | 21.67° C | 50% | 1013.3 hPa | 0.25 mm | - | - | - |
| 1777810106 | 23.89° C | 43% | 1013.1 hPa | 0.25 mm | - | - | - |
| 1777808306 | 23.89° C | 43% | 1013.1 hPa | 0 mm | - | - | - |
| 1777806506 | 23.33° C | 43% | 1013.2 hPa | 0 mm | - | - | - |
| 1777804706 | 22.78° C | 50% | 1013.5 hPa | 0 mm | - | - | - |
| 1777802908 | 22.78° C | 55% | 1013.6 hPa | 0 mm | - | - | - |
* Rain latest hour (hover to see other rain measurements)
** Current wind speed in m/s (hover to see current wind gust speed)